sensor_id;sensor_type;location;lat;lon;timestamp;P1;durP1;ratioP1;P2;durP2;ratioP2
21018;SDS011;10667;51.056;3.732;2024-01-15T00:01:55;4.82;;;3.55;;
21018;SDS011;10667;51.056;3.732;2024-01-15T00:04:21;5.78;;;3.70;;
21018;SDS011;10667;51.056;3.732;2024-01-15T00:06:47;7.03;;;3.28;;
21018;SDS011;10667;51.056;3.732;2024-01-15T00:09:12;5.38;;;3.33;;
21018;SDS011;10667;51.056;3.732;2024-01-15T00:11:38;5.35;;;2.90;;
21018;SDS011;10667;51.056;3.732;2024-01-15T00:14:03;6.68;;;3.10;;
21018;SDS011;10667;51.056;3.732;2024-01-15T00:16:29;4.57;;;3.17;;
21018;SDS011;10667;51.056;3.732;2024-01-15T00:18:55;8.98;;;3.50;;
21018;SDS011;10667;51.056;3.732;2024-01-15T00:21:20;4.78;;;3.05;;
21018;SDS011;10667;51.056;3.732;2024-01-15T00:23:46;7.25;;;3.42;;
21018;SDS011;10667;51.056;3.732;2024-01-15T00:26:12;5.97;;;3.25;;
21018;SDS011;10667;51.056;3.732;2024-01-15T00:28:38;4.68;;;3.30;;
21018;SDS011;10667;51.056;3.732;2024-01-15T00:31:04;6.05;;;3.55;;
21018;SDS011;10667;51.056;3.732;2024-01-15T00:33:30;4.45;;;3.53;;
21018;SDS011;10667;51.056;3.732;2024-01-15T00:35:56;5.78;;;3.88;;
21018;SDS011;10667;51.056;3.732;2024-01-15T00:38:22;8.70;;;4.32;;
21018;SDS011;10667;51.056;3.732;2024-01-15T00:40:47;6.30;;;4.15;;
21018;SDS011;10667;51.056;3.732;2024-01-15T00:43:13;5.80;;;3.30;;
21018;SDS011;10667;51.056;3.732;2024-01-15T00:45:39;6.45;;;3.78;;
21018;SDS011;10667;51.056;3.732;2024-01-15T00:48:05;7.35;;;3.85;;
21018;SDS011;10667;51.056;3.732;2024-01-15T00:50:31;5.28;;;4.45;;
21018;SDS011;10667;51.056;3.732;2024-01-15T00:52:57;9.52;;;3.40;;
21018;SDS011;10667;51.056;3.732;2024-01-15T00:55:23;9.02;;;3.88;;
21018;SDS011;10667;51.056;3.732;2024-01-15T00:57:48;6.72;;;3.50;;
21018;SDS011;10667;51.056;3.732;2024-01-15T01:00:14;7.20;;;3.58;;
21018;SDS011;10667;51.056;3.732;2024-01-15T01:02:40;7.25;;;3.97;;
21018;SDS011;10667;51.056;3.732;2024-01-15T01:05:05;6.28;;;4.00;;
21018;SDS011;10667;51.056;3.732;2024-01-15T01:07:31;8.00;;;3.78;;
21018;SDS011;10667;51.056;3.732;2024-01-15T01:09:57;8.07;;;4.07;;
21018;SDS011;10667;51.056;3.732;2024-01-15T01:12:22;6.63;;;3.70;;
21018;SDS011;10667;51.056;3.732;2024-01-15T01:14:48;5.05;;;3.47;;
21018;SDS011;10667;51.056;3.732;2024-01-15T01:17:14;7.05;;;3.63;;
21018;SDS011;10667;51.056;3.732;2024-01-15T01:19:39;5.57;;;3.80;;
21018;SDS011;10667;51.056;3.732;2024-01-15T01:22:05;7.97;;;3.92;;
21018;SDS011;10667;51.056;3.732;2024-01-15T01:24:30;5.38;;;3.33;;
21018;SDS011;10667;51.056;3.732;2024-01-15T01:26:56;6.60;;;3.70;;
21018;SDS011;10667;51.056;3.732;2024-01-15T01:29:22;8.38;;;3.80;;
21018;SDS011;10667;51.056;3.732;2024-01-15T01:31:48;4.93;;;3.63;;
21018;SDS011;10667;51.056;3.732;2024-01-15T01:34:14;7.55;;;3.85;;
21018;SDS011;10667;51.056;3.732;2024-01-15T01:36:40;7.40;;;3.42;;
21018;SDS011;10667;51.056;3.732;2024-01-15T01:39:06;9.73;;;3.92;;
21018;SDS011;10667;51.056;3.732;2024-01-15T01:41:32;7.95;;;4.45;;
21018;SDS011;10667;51.056;3.732;2024-01-15T01:43:58;8.32;;;4.40;;
21018;SDS011;10667;51.056;3.732;2024-01-15T01:46:24;6.68;;;3.95;;
21018;SDS011;10667;51.056;3.732;2024-01-15T01:48:51;6.03;;;3.97;;
21018;SDS011;10667;51.056;3.732;2024-01-15T01:51:18;6.80;;;4.03;;
21018;SDS011;10667;51.056;3.732;2024-01-15T01:53:46;10.45;;;4.03;;
21018;SDS011;10667;51.056;3.732;2024-01-15T01:56:13;9.65;;;3.75;;
21018;SDS011;10667;51.056;3.732;2024-01-15T01:58:39;7.72;;;3.85;;
21018;SDS011;10667;51.056;3.732;2024-01-15T02:01:05;7.40;;;4.15;;
21018;SDS011;10667;51.056;3.732;2024-01-15T02:03:32;8.32;;;3.92;;
21018;SDS011;10667;51.056;3.732;2024-01-15T02:05:58;10.93;;;4.30;;
21018;SDS011;10667;51.056;3.732;2024-01-15T02:08:25;7.93;;;3.38;;
21018;SDS011;10667;51.056;3.732;2024-01-15T02:10:51;12.57;;;5.03;;
21018;SDS011;10667;51.056;3.732;2024-01-15T02:13:17;9.05;;;3.50;;
21018;SDS011;10667;51.056;3.732;2024-01-15T02:15:43;7.63;;;3.67;;
21018;SDS011;10667;51.056;3.732;2024-01-15T02:18:09;6.55;;;3.78;;
21018;SDS011;10667;51.056;3.732;2024-01-15T02:20:35;8.60;;;3.55;;
21018;SDS011;10667;51.056;3.732;2024-01-15T02:25:37;7.18;;;3.72;;
21018;SDS011;10667;51.056;3.732;2024-01-15T02:28:05;12.38;;;4.38;;
21018;SDS011;10667;51.056;3.732;2024-01-15T02:30:32;7.82;;;3.90;;
21018;SDS011;10667;51.056;3.732;2024-01-15T02:33:03;5.25;;;3.30;;
21018;SDS011;10667;51.056;3.732;2024-01-15T02:35:28;7.07;;;3.45;;
21018;SDS011;10667;51.056;3.732;2024-01-15T02:37:54;6.93;;;3.65;;
21018;SDS011;10667;51.056;3.732;2024-01-15T02:40:20;8.40;;;4.05;;
21018;SDS011;10667;51.056;3.732;2024-01-15T02:42:45;6.75;;;3.42;;
21018;SDS011;10667;51.056;3.732;2024-01-15T02:45:11;7.72;;;3.83;;
21018;SDS011;10667;51.056;3.732;2024-01-15T02:47:36;8.05;;;3.90;;
21018;SDS011;10667;51.056;3.732;2024-01-15T02:50:02;9.68;;;3.72;;
21018;SDS011;10667;51.056;3.732;2024-01-15T02:52:28;12.27;;;4.00;;
21018;SDS011;10667;51.056;3.732;2024-01-15T02:54:54;9.27;;;3.65;;
21018;SDS011;10667;51.056;3.732;2024-01-15T02:57:19;5.85;;;3.33;;
21018;SDS011;10667;51.056;3.732;2024-01-15T02:59:45;6.43;;;3.13;;
21018;SDS011;10667;51.056;3.732;2024-01-15T03:02:10;13.57;;;5.72;;
21018;SDS011;10667;51.056;3.732;2024-01-15T03:04:36;5.18;;;3.30;;
21018;SDS011;10667;51.056;3.732;2024-01-15T03:07:02;8.15;;;3.70;;
21018;SDS011;10667;51.056;3.732;2024-01-15T03:09:27;7.78;;;3.35;;
21018;SDS011;10667;51.056;3.732;2024-01-15T03:11:53;11.90;;;4.00;;
21018;SDS011;10667;51.056;3.732;2024-01-15T03:14:18;7.30;;;3.70;;
21018;SDS011;10667;51.056;3.732;2024-01-15T03:16:45;4.97;;;3.60;;
21018;SDS011;10667;51.056;3.732;2024-01-15T03:19:11;7.97;;;3.90;;
21018;SDS011;10667;51.056;3.732;2024-01-15T03:21:36;8.23;;;3.65;;
21018;SDS011;10667;51.056;3.732;2024-01-15T03:24:02;9.98;;;3.80;;
21018;SDS011;10667;51.056;3.732;2024-01-15T03:26:28;10.45;;;3.38;;
21018;SDS011;10667;51.056;3.732;2024-01-15T03:28:53;8.98;;;4.32;;
21018;SDS011;10667;51.056;3.732;2024-01-15T03:31:19;13.00;;;3.92;;
21018;SDS011;10667;51.056;3.732;2024-01-15T03:33:45;8.43;;;3.17;;
21018;SDS011;10667;51.056;3.732;2024-01-15T03:36:10;8.40;;;3.20;;
21018;SDS011;10667;51.056;3.732;2024-01-15T03:38:38;8.25;;;3.50;;
21018;SDS011;10667;51.056;3.732;2024-01-15T03:41:07;11.82;;;3.97;;
21018;SDS011;10667;51.056;3.732;2024-01-15T03:43:33;10.40;;;3.78;;
21018;SDS011;10667;51.056;3.732;2024-01-15T03:45:59;6.60;;;2.83;;
21018;SDS011;10667;51.056;3.732;2024-01-15T03:48:24;8.45;;;3.15;;
21018;SDS011;10667;51.056;3.732;2024-01-15T03:50:50;8.05;;;2.67;;
21018;SDS011;10667;51.056;3.732;2024-01-15T03:53:15;7.82;;;2.90;;
21018;SDS011;10667;51.056;3.732;2024-01-15T03:55:41;9.23;;;3.30;;
21018;SDS011;10667;51.056;3.732;2024-01-15T03:58:07;15.95;;;3.00;;
21018;SDS011;10667;51.056;3.732;2024-01-15T04:00:34;5.03;;;2.65;;
21018;SDS011;10667;51.056;3.732;2024-01-15T04:02:59;5.13;;;2.50;;
21018;SDS011;10667;51.056;3.732;2024-01-15T04:05:25;6.28;;;2.80;;
21018;SDS011;10667;51.056;3.732;2024-01-15T04:07:51;6.65;;;2.78;;
21018;SDS011;10667;51.056;3.732;2024-01-15T04:10:16;4.43;;;2.22;;
21018;SDS011;10667;51.056;3.732;2024-01-15T04:12:42;10.10;;;2.60;;
21018;SDS011;10667;51.056;3.732;2024-01-15T04:15:08;7.40;;;2.67;;
21018;SDS011;10667;51.056;3.732;2024-01-15T04:17:33;8.38;;;2.28;;
21018;SDS011;10667;51.056;3.732;2024-01-15T04:19:59;7.25;;;2.60;;
21018;SDS011;10667;51.056;3.732;2024-01-15T04:22:25;7.20;;;2.60;;
21018;SDS011;10667;51.056;3.732;2024-01-15T04:24:51;10.05;;;2.40;;
21018;SDS011;10667;51.056;3.732;2024-01-15T04:27:17;6.72;;;2.88;;
21018;SDS011;10667;51.056;3.732;2024-01-15T04:29:43;6.10;;;2.50;;
21018;SDS011;10667;51.056;3.732;2024-01-15T04:32:09;4.57;;;2.58;;
21018;SDS011;10667;51.056;3.732;2024-01-15T04:34:35;5.60;;;2.38;;
21018;SDS011;10667;51.056;3.732;2024-01-15T04:37:01;7.80;;;2.80;;
21018;SDS011;10667;51.056;3.732;2024-01-15T04:39:27;3.83;;;2.25;;
21018;SDS011;10667;51.056;3.732;2024-01-15T04:41:52;7.65;;;2.63;;
21018;SDS011;10667;51.056;3.732;2024-01-15T04:44:18;7.55;;;2.42;;
21018;SDS011;10667;51.056;3.732;2024-01-15T04:46:44;8.10;;;2.78;;
21018;SDS011;10667;51.056;3.732;2024-01-15T04:49:10;6.30;;;2.60;;
21018;SDS011;10667;51.056;3.732;2024-01-15T04:51:36;4.55;;;2.58;;
21018;SDS011;10667;51.056;3.732;2024-01-15T04:54:02;6.30;;;2.40;;
21018;SDS011;10667;51.056;3.732;2024-01-15T04:56:28;7.10;;;2.42;;
21018;SDS011;10667;51.056;3.732;2024-01-15T04:58:54;5.05;;;2.50;;
21018;SDS011;10667;51.056;3.732;2024-01-15T05:01:20;6.15;;;2.60;;
21018;SDS011;10667;51.056;3.732;2024-01-15T05:03:45;7.05;;;2.38;;
21018;SDS011;10667;51.056;3.732;2024-01-15T05:06:11;7.57;;;2.72;;
21018;SDS011;10667;51.056;3.732;2024-01-15T05:08:37;5.03;;;2.38;;
21018;SDS011;10667;51.056;3.732;2024-01-15T05:11:02;6.90;;;2.83;;
21018;SDS011;10667;51.056;3.732;2024-01-15T05:13:28;5.13;;;2.60;;
21018;SDS011;10667;51.056;3.732;2024-01-15T05:15:54;4.90;;;2.60;;
21018;SDS011;10667;51.056;3.732;2024-01-15T05:18:19;5.20;;;2.42;;
21018;SDS011;10667;51.056;3.732;2024-01-15T05:20:45;4.90;;;3.15;;
21018;SDS011;10667;51.056;3.732;2024-01-15T05:23:11;5.78;;;2.85;;
21018;SDS011;10667;51.056;3.732;2024-01-15T05:25:36;6.20;;;2.83;;
21018;SDS011;10667;51.056;3.732;2024-01-15T05:28:02;5.70;;;2.50;;
21018;SDS011;10667;51.056;3.732;2024-01-15T05:30:28;7.78;;;2.58;;
21018;SDS011;10667;51.056;3.732;2024-01-15T05:32:54;7.10;;;2.90;;
21018;SDS011;10667;51.056;3.732;2024-01-15T05:35:19;11.32;;;2.72;;
21018;SDS011;10667;51.056;3.732;2024-01-15T05:37:45;11.77;;;3.00;;
21018;SDS011;10667;51.056;3.732;2024-01-15T05:40:14;3.22;;;2.67;;
21018;SDS011;10667;51.056;3.732;2024-01-15T05:42:40;12.80;;;2.80;;
21018;SDS011;10667;51.056;3.732;2024-01-15T05:45:06;7.10;;;2.80;;
21018;SDS011;10667;51.056;3.732;2024-01-15T05:47:32;6.70;;;2.78;;
21018;SDS011;10667;51.056;3.732;2024-01-15T05:49:58;4.93;;;2.70;;
21018;SDS011;10667;51.056;3.732;2024-01-15T05:52:25;12.20;;;3.22;;
21018;SDS011;10667;51.056;3.732;2024-01-15T05:54:51;13.48;;;3.00;;
21018;SDS011;10667;51.056;3.732;2024-01-15T05:57:17;7.57;;;3.10;;
21018;SDS011;10667;51.056;3.732;2024-01-15T05:59:44;10.05;;;2.50;;
21018;SDS011;10667;51.056;3.732;2024-01-15T06:02:10;9.63;;;3.30;;
21018;SDS011;10667;51.056;3.732;2024-01-15T06:04:36;8.82;;;2.92;;
21018;SDS011;10667;51.056;3.732;2024-01-15T06:07:02;12.55;;;3.45;;
21018;SDS011;10667;51.056;3.732;2024-01-15T06:09:28;7.60;;;2.72;;
21018;SDS011;10667;51.056;3.732;2024-01-15T06:11:53;9.18;;;3.00;;
21018;SDS011;10667;51.056;3.732;2024-01-15T06:14:20;9.23;;;2.85;;
21018;SDS011;10667;51.056;3.732;2024-01-15T06:16:45;8.13;;;2.90;;
21018;SDS011;10667;51.056;3.732;2024-01-15T06:19:11;8.25;;;2.75;;
21018;SDS011;10667;51.056;3.732;2024-01-15T06:21:37;9.95;;;2.30;;
21018;SDS011;10667;51.056;3.732;2024-01-15T06:24:02;7.63;;;2.38;;
21018;SDS011;10667;51.056;3.732;2024-01-15T06:26:28;9.80;;;2.80;;
21018;SDS011;10667;51.056;3.732;2024-01-15T06:28:54;6.40;;;2.28;;
21018;SDS011;10667;51.056;3.732;2024-01-15T06:31:19;9.23;;;2.83;;
21018;SDS011;10667;51.056;3.732;2024-01-15T06:33:45;8.63;;;2.97;;
21018;SDS011;10667;51.056;3.732;2024-01-15T06:36:13;11.43;;;2.65;;
21018;SDS011;10667;51.056;3.732;2024-01-15T06:38:39;6.68;;;2.40;;
21018;SDS011;10667;51.056;3.732;2024-01-15T06:41:05;9.15;;;2.67;;
21018;SDS011;10667;51.056;3.732;2024-01-15T06:43:31;9.70;;;2.53;;
21018;SDS011;10667;51.056;3.732;2024-01-15T06:45:56;8.30;;;2.60;;
21018;SDS011;10667;51.056;3.732;2024-01-15T06:48:22;11.00;;;2.90;;
21018;SDS011;10667;51.056;3.732;2024-01-15T06:50:48;7.80;;;2.70;;
21018;SDS011;10667;51.056;3.732;2024-01-15T06:53:13;14.38;;;3.10;;
21018;SDS011;10667;51.056;3.732;2024-01-15T06:55:39;9.07;;;3.38;;
21018;SDS011;10667;51.056;3.732;2024-01-15T06:58:04;10.27;;;3.00;;
21018;SDS011;10667;51.056;3.732;2024-01-15T07:00:30;7.38;;;2.60;;
21018;SDS011;10667;51.056;3.732;2024-01-15T07:02:56;7.80;;;2.50;;
21018;SDS011;10667;51.056;3.732;2024-01-15T07:05:21;7.53;;;3.25;;
21018;SDS011;10667;51.056;3.732;2024-01-15T07:07:49;3.92;;;2.35;;
21018;SDS011;10667;51.056;3.732;2024-01-15T07:10:14;7.03;;;3.05;;
21018;SDS011;10667;51.056;3.732;2024-01-15T07:12:44;17.02;;;3.20;;
21018;SDS011;10667;51.056;3.732;2024-01-15T07:15:09;11.70;;;2.55;;
21018;SDS011;10667;51.056;3.732;2024-01-15T07:17:35;5.50;;;2.70;;
21018;SDS011;10667;51.056;3.732;2024-01-15T07:20:04;11.57;;;3.00;;
21018;SDS011;10667;51.056;3.732;2024-01-15T07:22:35;6.13;;;2.95;;
21018;SDS011;10667;51.056;3.732;2024-01-15T07:25:01;8.25;;;2.92;;
21018;SDS011;10667;51.056;3.732;2024-01-15T07:27:27;9.88;;;2.65;;
21018;SDS011;10667;51.056;3.732;2024-01-15T07:29:53;12.25;;;2.70;;
21018;SDS011;10667;51.056;3.732;2024-01-15T07:32:18;13.20;;;2.85;;
21018;SDS011;10667;51.056;3.732;2024-01-15T07:34:45;10.52;;;2.90;;
21018;SDS011;10667;51.056;3.732;2024-01-15T07:37:11;10.93;;;3.03;;
21018;SDS011;10667;51.056;3.732;2024-01-15T07:39:36;5.28;;;2.45;;
21018;SDS011;10667;51.056;3.732;2024-01-15T07:42:03;10.00;;;3.05;;
21018;SDS011;10667;51.056;3.732;2024-01-15T07:44:29;6.90;;;2.58;;
21018;SDS011;10667;51.056;3.732;2024-01-15T07:46:54;12.23;;;3.10;;
21018;SDS011;10667;51.056;3.732;2024-01-15T07:49:20;6.95;;;2.70;;
21018;SDS011;10667;51.056;3.732;2024-01-15T07:51:45;8.63;;;2.40;;
21018;SDS011;10667;51.056;3.732;2024-01-15T07:54:11;7.57;;;2.67;;
21018;SDS011;10667;51.056;3.732;2024-01-15T07:56:52;10.30;;;2.45;;
21018;SDS011;10667;51.056;3.732;2024-01-15T07:59:25;8.05;;;2.65;;
21018;SDS011;10667;51.056;3.732;2024-01-15T08:01:52;4.22;;;2.03;;
21018;SDS011;10667;51.056;3.732;2024-01-15T08:04:18;7.47;;;2.47;;
21018;SDS011;10667;51.056;3.732;2024-01-15T08:06:44;6.95;;;2.70;;
21018;SDS011;10667;51.056;3.732;2024-01-15T08:09:10;9.30;;;2.85;;
21018;SDS011;10667;51.056;3.732;2024-01-15T08:11:40;7.20;;;2.53;;
21018;SDS011;10667;51.056;3.732;2024-01-15T08:14:07;7.22;;;2.70;;
21018;SDS011;10667;51.056;3.732;2024-01-15T08:16:33;7.50;;;2.80;;
21018;SDS011;10667;51.056;3.732;2024-01-15T08:18:59;9.90;;;2.63;;
21018;SDS011;10667;51.056;3.732;2024-01-15T08:21:24;10.48;;;2.55;;
21018;SDS011;10667;51.056;3.732;2024-01-15T08:23:50;8.95;;;2.38;;
21018;SDS011;10667;51.056;3.732;2024-01-15T08:26:17;4.70;;;3.05;;
21018;SDS011;10667;51.056;3.732;2024-01-15T08:28:42;11.57;;;2.40;;
21018;SDS011;10667;51.056;3.732;2024-01-15T08:31:08;11.43;;;3.10;;
21018;SDS011;10667;51.056;3.732;2024-01-15T08:33:34;9.75;;;3.03;;
21018;SDS011;10667;51.056;3.732;2024-01-15T08:36:01;9.07;;;2.63;;
21018;SDS011;10667;51.056;3.732;2024-01-15T08:38:26;7.30;;;2.53;;
21018;SDS011;10667;51.056;3.732;2024-01-15T08:40:52;8.25;;;2.67;;
21018;SDS011;10667;51.056;3.732;2024-01-15T08:43:18;17.00;;;2.92;;
21018;SDS011;10667;51.056;3.732;2024-01-15T08:45:44;10.48;;;2.42;;
21018;SDS011;10667;51.056;3.732;2024-01-15T08:48:10;7.72;;;3.22;;
21018;SDS011;10667;51.056;3.732;2024-01-15T08:50:36;6.13;;;2.53;;
21018;SDS011;10667;51.056;3.732;2024-01-15T08:53:01;6.32;;;2.53;;
21018;SDS011;10667;51.056;3.732;2024-01-15T08:55:27;7.50;;;2.65;;
21018;SDS011;10667;51.056;3.732;2024-01-15T08:57:53;6.90;;;2.85;;
21018;SDS011;10667;51.056;3.732;2024-01-15T09:00:19;6.28;;;2.22;;
21018;SDS011;10667;51.056;3.732;2024-01-15T09:02:45;8.48;;;2.72;;
21018;SDS011;10667;51.056;3.732;2024-01-15T09:05:10;6.85;;;2.40;;
21018;SDS011;10667;51.056;3.732;2024-01-15T09:07:36;4.53;;;2.38;;
21018;SDS011;10667;51.056;3.732;2024-01-15T09:10:02;6.95;;;2.17;;
21018;SDS011;10667;51.056;3.732;2024-01-15T09:12:27;4.57;;;2.03;;
21018;SDS011;10667;51.056;3.732;2024-01-15T09:14:54;11.65;;;2.40;;
21018;SDS011;10667;51.056;3.732;2024-01-15T09:17:20;5.88;;;2.25;;
21018;SDS011;10667;51.056;3.732;2024-01-15T09:19:48;12.65;;;2.67;;
21018;SDS011;10667;51.056;3.732;2024-01-15T09:22:14;9.55;;;2.47;;
21018;SDS011;10667;51.056;3.732;2024-01-15T09:24:43;12.48;;;2.25;;
21018;SDS011;10667;51.056;3.732;2024-01-15T09:27:09;8.70;;;2.72;;
21018;SDS011;10667;51.056;3.732;2024-01-15T09:29:34;8.70;;;2.35;;
21018;SDS011;10667;51.056;3.732;2024-01-15T09:32:02;5.60;;;2.58;;
21018;SDS011;10667;51.056;3.732;2024-01-15T09:34:29;7.15;;;2.50;;
21018;SDS011;10667;51.056;3.732;2024-01-15T09:36:55;6.78;;;2.35;;
21018;SDS011;10667;51.056;3.732;2024-01-15T09:39:20;9.68;;;2.50;;
21018;SDS011;10667;51.056;3.732;2024-01-15T09:41:48;3.15;;;1.95;;
21018;SDS011;10667;51.056;3.732;2024-01-15T09:44:15;8.88;;;2.40;;
21018;SDS011;10667;51.056;3.732;2024-01-15T09:46:42;5.03;;;2.30;;
21018;SDS011;10667;51.056;3.732;2024-01-15T09:49:09;11.13;;;2.80;;
21018;SDS011;10667;51.056;3.732;2024-01-15T09:51:36;9.57;;;2.75;;
21018;SDS011;10667;51.056;3.732;2024-01-15T09:54:02;7.93;;;2.45;;
21018;SDS011;10667;51.056;3.732;2024-01-15T09:56:29;8.60;;;2.55;;
21018;SDS011;10667;51.056;3.732;2024-01-15T09:58:55;8.60;;;2.28;;
21018;SDS011;10667;51.056;3.732;2024-01-15T10:01:22;6.38;;;2.08;;
21018;SDS011;10667;51.056;3.732;2024-01-15T10:03:48;6.53;;;2.50;;
21018;SDS011;10667;51.056;3.732;2024-01-15T10:06:15;5.78;;;2.45;;
21018;SDS011;10667;51.056;3.732;2024-01-15T10:08:50;8.82;;;2.53;;
21018;SDS011;10667;51.056;3.732;2024-01-15T10:11:16;10.15;;;2.58;;
21018;SDS011;10667;51.056;3.732;2024-01-15T10:13:45;11.95;;;3.13;;
21018;SDS011;10667;51.056;3.732;2024-01-15T10:16:12;11.60;;;3.30;;
21018;SDS011;10667;51.056;3.732;2024-01-15T10:18:37;5.25;;;2.25;;
21018;SDS011;10667;51.056;3.732;2024-01-15T10:21:05;12.07;;;2.53;;
21018;SDS011;10667;51.056;3.732;2024-01-15T10:23:32;6.82;;;2.35;;
21018;SDS011;10667;51.056;3.732;2024-01-15T10:25:58;7.50;;;3.10;;
21018;SDS011;10667;51.056;3.732;2024-01-15T10:28:26;6.95;;;2.78;;
21018;SDS011;10667;51.056;3.732;2024-01-15T10:30:55;7.03;;;2.65;;
21018;SDS011;10667;51.056;3.732;2024-01-15T10:33:22;12.15;;;3.22;;
21018;SDS011;10667;51.056;3.732;2024-01-15T10:35:54;13.05;;;3.58;;
21018;SDS011;10667;51.056;3.732;2024-01-15T10:38:24;5.43;;;2.70;;
21018;SDS011;10667;51.056;3.732;2024-01-15T10:40:51;8.90;;;2.83;;
21018;SDS011;10667;51.056;3.732;2024-01-15T10:43:17;6.78;;;2.80;;
21018;SDS011;10667;51.056;3.732;2024-01-15T10:45:46;7.50;;;2.85;;
21018;SDS011;10667;51.056;3.732;2024-01-15T10:48:16;9.25;;;2.38;;
21018;SDS011;10667;51.056;3.732;2024-01-15T10:50:43;13.50;;;2.47;;
21018;SDS011;10667;51.056;3.732;2024-01-15T10:53:10;10.02;;;2.20;;
21018;SDS011;10667;51.056;3.732;2024-01-15T10:55:37;7.78;;;3.83;;
21018;SDS011;10667;51.056;3.732;2024-01-15T10:58:04;8.70;;;2.60;;
21018;SDS011;10667;51.056;3.732;2024-01-15T11:00:32;7.55;;;2.65;;
21018;SDS011;10667;51.056;3.732;2024-01-15T11:03:05;10.75;;;2.53;;
21018;SDS011;10667;51.056;3.732;2024-01-15T11:05:38;9.07;;;2.78;;
21018;SDS011;10667;51.056;3.732;2024-01-15T11:08:07;10.88;;;2.75;;
21018;SDS011;10667;51.056;3.732;2024-01-15T11:10:40;11.90;;;2.42;;
21018;SDS011;10667;51.056;3.732;2024-01-15T11:13:20;7.93;;;2.22;;
21018;SDS011;10667;51.056;3.732;2024-01-15T11:18:21;5.47;;;2.40;;
21018;SDS011;10667;51.056;3.732;2024-01-15T11:23:41;6.07;;;2.58;;
21018;SDS011;10667;51.056;3.732;2024-01-15T11:26:34;13.32;;;2.85;;
21018;SDS011;10667;51.056;3.732;2024-01-15T11:32:09;8.00;;;2.78;;
21018;SDS011;10667;51.056;3.732;2024-01-15T11:34:51;11.80;;;2.63;;
21018;SDS011;10667;51.056;3.732;2024-01-15T11:37:18;12.07;;;2.90;;
21018;SDS011;10667;51.056;3.732;2024-01-15T11:39:44;10.88;;;3.10;;
21018;SDS011;10667;51.056;3.732;2024-01-15T11:42:13;9.30;;;3.28;;
21018;SDS011;10667;51.056;3.732;2024-01-15T11:44:40;7.40;;;2.72;;
21018;SDS011;10667;51.056;3.732;2024-01-15T11:47:07;7.25;;;2.50;;
21018;SDS011;10667;51.056;3.732;2024-01-15T11:52:32;7.80;;;2.22;;
21018;SDS011;10667;51.056;3.732;2024-01-15T11:55:07;15.52;;;2.72;;
21018;SDS011;10667;51.056;3.732;2024-01-15T11:57:50;8.85;;;2.20;;
21018;SDS011;10667;51.056;3.732;2024-01-15T12:00:17;9.30;;;2.60;;
21018;SDS011;10667;51.056;3.732;2024-01-15T12:02:44;5.30;;;2.42;;
21018;SDS011;10667;51.056;3.732;2024-01-15T12:05:12;9.95;;;2.30;;
21018;SDS011;10667;51.056;3.732;2024-01-15T12:07:39;11.30;;;2.50;;
21018;SDS011;10667;51.056;3.732;2024-01-15T12:10:11;7.70;;;2.30;;
21018;SDS011;10667;51.056;3.732;2024-01-15T12:12:39;11.73;;;2.47;;
21018;SDS011;10667;51.056;3.732;2024-01-15T12:15:09;9.90;;;2.42;;
21018;SDS011;10667;51.056;3.732;2024-01-15T12:17:35;11.05;;;2.80;;
21018;SDS011;10667;51.056;3.732;2024-01-15T12:20:02;13.25;;;2.50;;
21018;SDS011;10667;51.056;3.732;2024-01-15T12:22:29;11.70;;;2.45;;
21018;SDS011;10667;51.056;3.732;2024-01-15T12:24:55;8.57;;;2.75;;
21018;SDS011;10667;51.056;3.732;2024-01-15T12:27:20;6.07;;;2.47;;
21018;SDS011;10667;51.056;3.732;2024-01-15T12:29:46;12.07;;;2.67;;
21018;SDS011;10667;51.056;3.732;2024-01-15T12:32:12;11.85;;;2.90;;
21018;SDS011;10667;51.056;3.732;2024-01-15T12:34:38;9.68;;;2.40;;
21018;SDS011;10667;51.056;3.732;2024-01-15T12:37:04;12.35;;;2.95;;
21018;SDS011;10667;51.056;3.732;2024-01-15T12:39:29;13.15;;;3.33;;
21018;SDS011;10667;51.056;3.732;2024-01-15T12:41:55;11.43;;;2.67;;
21018;SDS011;10667;51.056;3.732;2024-01-15T12:44:21;8.68;;;2.60;;
21018;SDS011;10667;51.056;3.732;2024-01-15T12:46:47;7.32;;;2.72;;
21018;SDS011;10667;51.056;3.732;2024-01-15T12:49:13;10.55;;;3.00;;
21018;SDS011;10667;51.056;3.732;2024-01-15T12:51:39;10.48;;;2.40;;
21018;SDS011;10667;51.056;3.732;2024-01-15T12:54:06;11.13;;;2.72;;
21018;SDS011;10667;51.056;3.732;2024-01-15T12:56:31;9.55;;;2.65;;
21018;SDS011;10667;51.056;3.732;2024-01-15T12:58:57;10.32;;;3.05;;
21018;SDS011;10667;51.056;3.732;2024-01-15T13:01:22;12.60;;;3.17;;
21018;SDS011;10667;51.056;3.732;2024-01-15T13:03:48;13.43;;;3.00;;
21018;SDS011;10667;51.056;3.732;2024-01-15T13:06:14;9.75;;;2.58;;
21018;SDS011;10667;51.056;3.732;2024-01-15T13:08:39;8.10;;;2.72;;
21018;SDS011;10667;51.056;3.732;2024-01-15T13:11:05;17.10;;;3.13;;
21018;SDS011;10667;51.056;3.732;2024-01-15T13:13:30;11.27;;;2.50;;
21018;SDS011;10667;51.056;3.732;2024-01-15T13:15:59;10.90;;;3.17;;
21018;SDS011;10667;51.056;3.732;2024-01-15T13:18:25;17.90;;;2.30;;
21018;SDS011;10667;51.056;3.732;2024-01-15T13:20:50;8.30;;;2.25;;
21018;SDS011;10667;51.056;3.732;2024-01-15T13:23:16;7.82;;;2.47;;
21018;SDS011;10667;51.056;3.732;2024-01-15T13:25:42;11.20;;;2.85;;
21018;SDS011;10667;51.056;3.732;2024-01-15T13:28:08;10.02;;;3.20;;
21018;SDS011;10667;51.056;3.732;2024-01-15T13:30:33;9.90;;;2.83;;
21018;SDS011;10667;51.056;3.732;2024-01-15T13:32:59;12.68;;;3.03;;
21018;SDS011;10667;51.056;3.732;2024-01-15T13:35:29;9.35;;;2.47;;
21018;SDS011;10667;51.056;3.732;2024-01-15T13:37:55;12.05;;;3.10;;
21018;SDS011;10667;51.056;3.732;2024-01-15T13:40:21;7.80;;;2.60;;
21018;SDS011;10667;51.056;3.732;2024-01-15T13:42:46;11.80;;;2.50;;
21018;SDS011;10667;51.056;3.732;2024-01-15T13:45:13;6.82;;;2.67;;
21018;SDS011;10667;51.056;3.732;2024-01-15T13:47:42;14.60;;;3.38;;
21018;SDS011;10667;51.056;3.732;2024-01-15T13:50:08;13.05;;;2.85;;
21018;SDS011;10667;51.056;3.732;2024-01-15T13:52:34;15.85;;;3.15;;
21018;SDS011;10667;51.056;3.732;2024-01-15T13:55:01;6.60;;;1.92;;
21018;SDS011;10667;51.056;3.732;2024-01-15T13:57:26;12.73;;;2.80;;
21018;SDS011;10667;51.056;3.732;2024-01-15T13:59:52;6.95;;;2.53;;
21018;SDS011;10667;51.056;3.732;2024-01-15T14:02:18;7.78;;;2.70;;
21018;SDS011;10667;51.056;3.732;2024-01-15T14:04:45;4.68;;;2.20;;
21018;SDS011;10667;51.056;3.732;2024-01-15T14:07:11;8.32;;;3.22;;
21018;SDS011;10667;51.056;3.732;2024-01-15T14:09:36;8.95;;;2.53;;
21018;SDS011;10667;51.056;3.732;2024-01-15T14:12:02;10.82;;;2.67;;
21018;SDS011;10667;51.056;3.732;2024-01-15T14:14:28;14.57;;;3.58;;
21018;SDS011;10667;51.056;3.732;2024-01-15T14:16:54;13.80;;;2.88;;
21018;SDS011;10667;51.056;3.732;2024-01-15T14:19:20;8.10;;;2.50;;
21018;SDS011;10667;51.056;3.732;2024-01-15T14:21:45;8.85;;;2.63;;
21018;SDS011;10667;51.056;3.732;2024-01-15T14:24:11;8.13;;;3.17;;
21018;SDS011;10667;51.056;3.732;2024-01-15T14:26:37;12.52;;;3.40;;
21018;SDS011;10667;51.056;3.732;2024-01-15T14:29:02;8.50;;;2.83;;
21018;SDS011;10667;51.056;3.732;2024-01-15T14:31:28;11.32;;;2.95;;
21018;SDS011;10667;51.056;3.732;2024-01-15T14:33:54;10.93;;;2.72;;
21018;SDS011;10667;51.056;3.732;2024-01-15T14:36:23;8.18;;;3.30;;
21018;SDS011;10667;51.056;3.732;2024-01-15T14:38:49;13.48;;;2.95;;
21018;SDS011;10667;51.056;3.732;2024-01-15T14:41:15;10.43;;;3.00;;
21018;SDS011;10667;51.056;3.732;2024-01-15T14:43:41;15.00;;;2.80;;
21018;SDS011;10667;51.056;3.732;2024-01-15T14:46:07;15.35;;;3.17;;
21018;SDS011;10667;51.056;3.732;2024-01-15T14:48:33;15.88;;;3.20;;
21018;SDS011;10667;51.056;3.732;2024-01-15T14:50:58;12.25;;;3.38;;
21018;SDS011;10667;51.056;3.732;2024-01-15T14:53:24;11.73;;;2.92;;